Time;durP1;ratioP1;P1;durP2;ratioP2;P2;SDS_P1;SDS_P2;PMS_P1;PMS_P2;Temp;Humidity;BMP_temperature;BMP_pressure;BME280_temperature;BME280_humidity;BME280_pressure;Samples;Min_cycle;Max_cycle;Signal;HPM_P1;HPM_P2
2021/10/23 00:01:56;;;;;;;33.00;11.15;;;22.30;45.60;;;;;;1886964;76;21600;-39
2021/10/23 00:04:23;;;;;;;21.93;8.23;;;22.30;45.50;;;;;;1882954;76;21502;-38
2021/10/23 00:06:51;;;;;;;31.65;9.48;;;22.30;45.50;;;;;;1882993;76;21563;-39
2021/10/23 00:09:18;;;;;;;27.75;9.70;;;22.30;45.60;;;;;;1882826;75;21196;-38
2021/10/23 00:11:46;;;;;;;26.45;9.55;;;22.30;45.70;;;;;;1882836;76;21044;-39
2021/10/23 00:14:14;;;;;;;29.10;9.50;;;22.30;45.80;;;;;;1882934;76;21141;-41
2021/10/23 00:16:41;;;;;;;25.05;9.33;;;22.30;45.70;;;;;;1882796;76;21142;-41
2021/10/23 00:19:09;;;;;;;26.37;9.80;;;22.30;45.70;;;;;;1883077;76;21146;-38
2021/10/23 00:21:36;;;;;;;23.45;8.75;;;22.30;45.70;;;;;;1883039;76;21079;-39
2021/10/23 00:24:04;;;;;;;21.12;9.00;;;22.30;45.80;;;;;;1882819;76;21501;-38
2021/10/23 00:26:31;;;;;;;27.15;9.13;;;22.30;45.80;;;;;;1882957;76;21603;-40
2021/10/23 00:28:59;;;;;;;24.90;9.88;;;22.30;45.90;;;;;;1882820;76;21075;-41
2021/10/23 00:31:26;;;;;;;26.70;10.43;;;22.40;45.90;;;;;;1882903;76;21599;-40
2021/10/23 00:33:54;;;;;;;24.27;9.45;;;22.30;45.90;;;;;;1882863;76;21453;-39
2021/10/23 00:36:21;;;;;;;26.40;9.75;;;22.40;46.00;;;;;;1882838;76;21137;-41
2021/10/23 00:38:49;;;;;;;25.00;9.65;;;22.30;45.80;;;;;;1882844;76;21532;-44
2021/10/23 00:41:16;;;;;;;30.12;11.65;;;22.30;45.90;;;;;;1882812;76;21075;-38
2021/10/23 00:43:45;;;;;;;24.25;11.05;;;22.30;45.90;;;;;;1882794;76;21501;-42
2021/10/23 00:46:14;;;;;;;28.10;10.13;;;22.40;46.00;;;;;;1882913;76;21071;-39
2021/10/23 00:48:42;;;;;;;24.47;10.53;;;22.40;46.00;;;;;;1882927;76;21598;-41
2021/10/23 00:51:10;;;;;;;26.45;9.73;;;22.40;45.90;;;;;;1882893;76;21529;-41
2021/10/23 00:53:38;;;;;;;24.63;9.48;;;22.40;45.80;;;;;;1882928;76;21578;-40
2021/10/23 00:56:06;;;;;;;27.13;10.43;;;22.30;45.80;;;;;;1882750;76;21153;-38
2021/10/23 00:58:34;;;;;;;22.85;10.18;;;22.30;45.80;;;;;;1883069;76;21075;-41
2021/10/23 01:01:02;;;;;;;23.35;10.38;;;22.30;45.60;;;;;;1882901;76;21520;-41
2021/10/23 01:03:29;;;;;;;24.47;9.78;;;22.40;45.70;;;;;;1882893;76;21077;-38
2021/10/23 01:05:57;;;;;;;25.90;10.75;;;22.40;45.80;;;;;;1882898;76;21537;-40
2021/10/23 01:08:25;;;;;;;24.23;10.15;;;22.30;45.80;;;;;;1882823;76;21497;-39
2021/10/23 01:10:52;;;;;;;26.27;10.40;;;22.30;45.80;;;;;;1882744;75;21165;-38
2021/10/23 01:13:20;;;;;;;21.02;9.03;;;22.30;46.00;;;;;;1882934;76;21080;-38
2021/10/23 01:15:47;;;;;;;25.17;10.53;;;22.30;46.10;;;;;;1882919;76;21529;-40
2021/10/23 01:18:15;;;;;;;25.10;10.63;;;22.40;46.20;;;;;;1882927;76;21170;-38
2021/10/23 01:20:42;;;;;;;25.25;10.28;;;22.40;46.20;;;;;;1849010;76;21520;-39
2021/10/23 01:23:10;;;;;;;27.05;10.38;;;22.30;46.20;;;;;;1882910;76;21603;-38
2021/10/23 01:25:37;;;;;;;30.80;10.58;;;22.30;46.20;;;;;;1882779;76;21072;-38
2021/10/23 01:28:05;;;;;;;25.25;10.53;;;22.30;46.30;;;;;;1882799;76;21071;-39
2021/10/23 01:30:33;;;;;;;25.02;9.90;;;22.30;46.30;;;;;;1882773;76;21126;-37
2021/10/23 01:33:01;;;;;;;24.85;11.00;;;22.30;46.30;;;;;;1882798;76;21114;-40
2021/10/23 01:35:29;;;;;;;21.57;9.80;;;22.30;46.10;;;;;;1882898;76;21529;-38
2021/10/23 01:37:56;;;;;;;19.57;9.00;;;22.30;46.10;;;;;;1882791;76;21134;-40
2021/10/23 01:40:34;;;;;;;23.30;9.73;;;22.30;46.00;;;;;;1882788;76;21529;-39
2021/10/23 01:43:02;;;;;;;27.48;10.55;;;22.30;46.00;;;;;;1882808;76;21084;-42
2021/10/23 01:45:30;;;;;;;24.98;10.43;;;22.30;46.20;;;;;;1882862;76;21099;-40
2021/10/23 01:47:59;;;;;;;23.22;10.30;;;22.30;46.20;;;;;;1882766;76;21041;-40
2021/10/23 01:50:28;;;;;;;22.87;10.38;;;22.30;46.20;;;;;;1882761;76;21040;-40
2021/10/23 01:52:56;;;;;;;21.95;9.23;;;22.30;46.20;;;;;;1882902;76;21072;-40
2021/10/23 01:55:25;;;;;;;21.07;9.45;;;22.30;46.20;;;;;;1882946;76;21535;-39
2021/10/23 01:57:53;;;;;;;22.87;9.38;;;22.40;46.20;;;;;;1882908;76;21557;-40
2021/10/23 02:00:20;;;;;;;20.75;9.33;;;22.30;46.10;;;;;;1848951;76;21110;-43
2021/10/23 02:02:48;;;;;;;22.10;10.10;;;22.30;46.00;;;;;;1882899;76;21546;-39
2021/10/23 02:05:15;;;;;;;22.77;10.20;;;22.30;46.10;;;;;;1882798;76;21485;-41
2021/10/23 02:07:43;;;;;;;19.95;9.73;;;22.40;46.20;;;;;;1883026;76;21151;-40
2021/10/23 02:10:11;;;;;;;25.12;9.38;;;22.30;45.70;;;;;;1882889;75;21603;-41
2021/10/23 02:12:38;;;;;;;22.30;9.25;;;22.30;46.10;;;;;;1882979;76;21514;-40
2021/10/23 02:15:07;;;;;;;21.27;9.83;;;22.30;46.10;;;;;;1882895;76;21013;-41
2021/10/23 02:17:35;;;;;;;22.13;9.63;;;22.30;46.10;;;;;;1882997;76;21587;-40
2021/10/23 02:20:07;;;;;;;21.65;9.98;;;22.30;46.10;;;;;;1882869;76;21581;-40
2021/10/23 02:22:35;;;;;;;17.80;9.60;;;22.30;46.00;;;;;;1881066;76;21504;-42
2021/10/23 02:25:03;;;;;;;23.10;9.08;;;22.30;46.00;;;;;;1882970;76;21119;-39
2021/10/23 02:27:30;;;;;;;19.40;9.53;;;22.30;46.00;;;;;;1882939;76;21629;-38
2021/10/23 02:29:58;;;;;;;19.25;8.85;;;22.30;45.90;;;;;;1882926;76;21044;-41
2021/10/23 02:32:25;;;;;;;18.75;8.30;;;22.30;46.00;;;;;;1882862;76;21036;-42
2021/10/23 02:34:53;;;;;;;19.73;9.10;;;22.30;46.00;;;;;;1882879;76;21068;-39
2021/10/23 02:37:20;;;;;;;20.80;9.50;;;22.30;46.00;;;;;;1882983;76;21528;-40
2021/10/23 02:39:48;;;;;;;17.20;8.53;;;22.30;46.00;;;;;;1882979;76;21101;-39
2021/10/23 02:42:16;;;;;;;18.45;7.83;;;22.30;45.90;;;;;;1882891;76;21075;-40
2021/10/23 02:44:44;;;;;;;17.42;7.62;;;22.30;46.00;;;;;;1882890;76;21116;-38
2021/10/23 02:47:11;;;;;;;19.98;7.90;;;22.30;45.90;;;;;;1882950;76;21072;-40
2021/10/23 02:49:39;;;;;;;16.80;7.90;;;22.30;45.90;;;;;;1883001;76;21561;-39
2021/10/23 02:52:06;;;;;;;15.68;7.10;;;22.30;45.90;;;;;;1882854;76;21052;-40
2021/10/23 02:54:34;;;;;;;15.20;6.95;;;22.30;45.80;;;;;;1882976;76;21533;-40
2021/10/23 02:57:02;;;;;;;16.97;6.83;;;22.30;45.80;;;;;;1882971;76;21510;-41
2021/10/23 02:59:29;;;;;;;13.85;7.17;;;22.30;45.80;;;;;;1882868;76;21067;-43
2021/10/23 03:01:57;;;;;;;14.85;7.03;;;22.30;45.90;;;;;;1882989;76;21517;-41
2021/10/23 03:04:24;;;;;;;14.28;6.72;;;22.30;45.80;;;;;;1892197;76;21588;-40
2021/10/23 03:06:52;;;;;;;15.83;7.10;;;22.30;45.80;;;;;;1892012;76;21056;-39
2021/10/23 03:09:19;;;;;;;17.98;7.28;;;22.30;45.90;;;;;;1892219;75;21557;-39
2021/10/23 03:11:47;;;;;;;12.90;6.45;;;22.30;45.80;;;;;;1892140;76;21520;-39
2021/10/23 03:14:15;;;;;;;14.90;6.75;;;22.30;45.80;;;;;;1892083;76;21075;-42
2021/10/23 03:16:43;;;;;;;15.35;6.20;;;22.30;45.80;;;;;;1892352;76;21557;-40
2021/10/23 03:19:10;;;;;;;13.95;6.30;;;22.30;45.70;;;;;;1892167;76;21563;-39
2021/10/23 03:21:38;;;;;;;15.83;6.08;;;22.30;45.70;;;;;;1892236;76;21624;-39
2021/10/23 03:24:05;;;;;;;11.65;6.08;;;22.30;45.70;;;;;;1892136;76;21141;-40
2021/10/23 03:26:33;;;;;;;15.72;7.08;;;22.30;45.80;;;;;;1892217;76;21510;-42
2021/10/23 03:29:01;;;;;;;11.70;5.80;;;22.30;45.80;;;;;;1892197;76;21604;-41
2021/10/23 03:31:28;;;;;;;14.33;6.17;;;22.30;45.70;;;;;;1892098;76;21516;-41
2021/10/23 03:33:56;;;;;;;12.68;5.97;;;22.30;45.70;;;;;;1892147;76;21040;-40
2021/10/23 03:36:23;;;;;;;12.50;5.85;;;22.30;45.70;;;;;;1892114;76;21040;-39
2021/10/23 03:38:51;;;;;;;16.00;7.20;;;22.30;45.70;;;;;;1892219;76;21151;-40
2021/10/23 03:41:18;;;;;;;13.13;6.25;;;22.30;45.70;;;;;;1892205;76;21606;-39
2021/10/23 03:43:46;;;;;;;9.75;4.90;;;22.30;45.60;;;;;;1892123;76;21082;-39
2021/10/23 03:46:13;;;;;;;9.60;4.92;;;22.30;45.70;;;;;;1892236;76;21524;-39
2021/10/23 03:48:41;;;;;;;12.98;5.97;;;22.30;45.70;;;;;;1892139;76;21613;-38
2021/10/23 03:51:08;;;;;;;10.35;4.83;;;22.30;45.60;;;;;;1892174;76;21505;-39
2021/10/23 03:53:36;;;;;;;13.38;5.20;;;22.30;45.70;;;;;;1892226;76;21469;-40
2021/10/23 03:56:04;;;;;;;11.20;5.00;;;22.30;45.70;;;;;;1892100;76;21067;-40
2021/10/23 03:58:32;;;;;;;9.45;4.55;;;22.30;45.60;;;;;;1892124;76;21055;-39
2021/10/23 04:00:59;;;;;;;10.88;4.90;;;22.30;45.40;;;;;;1892237;76;21552;-40
2021/10/23 04:03:27;;;;;;;9.18;4.20;;;22.30;45.40;;;;;;1888380;76;21091;-42
2021/10/23 04:05:54;;;;;;;11.35;5.17;;;22.30;45.50;;;;;;1882784;76;21072;-41
2021/10/23 04:08:22;;;;;;;8.35;4.80;;;22.30;45.40;;;;;;1882898;76;21079;-41
2021/10/23 04:10:49;;;;;;;8.03;4.47;;;22.30;45.30;;;;;;1882764;75;21573;-41
2021/10/23 04:13:17;;;;;;;8.53;3.90;;;22.30;45.30;;;;;;1882962;76;21525;-42
2021/10/23 04:15:44;;;;;;;7.10;4.20;;;22.30;45.20;;;;;;1882896;76;21005;-40
2021/10/23 04:18:12;;;;;;;8.63;4.15;;;22.30;45.20;;;;;;1882845;76;21072;-40
2021/10/23 04:20:40;;;;;;;7.28;3.77;;;22.30;45.20;;;;;;1882913;76;21512;-43
2021/10/23 04:23:07;;;;;;;6.80;3.85;;;22.30;45.20;;;;;;1882823;76;21117;-41
2021/10/23 04:25:56;;;;;;;9.35;3.90;;;22.30;45.10;;;;;;1882911;76;21481;-41
2021/10/23 04:28:23;;;;;;;8.48;4.08;;;22.30;45.10;;;;;;1882803;76;21035;-40
2021/10/23 04:30:51;;;;;;;7.28;3.58;;;22.20;45.20;;;;;;1882730;76;21099;-39
2021/10/23 04:33:18;;;;;;;8.68;4.00;;;22.30;45.10;;;;;;1882723;76;21175;-41
2021/10/23 04:35:45;;;;;;;8.75;4.10;;;22.20;45.10;;;;;;1882710;76;21146;-39
2021/10/23 04:38:13;;;;;;;10.15;4.03;;;22.30;45.10;;;;;;1882919;76;21051;-39
2021/10/23 04:40:40;;;;;;;7.15;3.50;;;22.30;45.10;;;;;;1882750;76;21137;-39
2021/10/23 04:43:07;;;;;;;8.80;3.62;;;22.30;45.00;;;;;;1882709;76;21133;-40
2021/10/23 04:45:35;;;;;;;7.33;3.50;;;22.30;44.90;;;;;;1882736;76;21033;-42
2021/10/23 04:48:02;;;;;;;9.08;3.87;;;22.20;44.70;;;;;;1882747;76;21055;-41
2021/10/23 04:50:30;;;;;;;7.95;3.90;;;22.20;44.50;;;;;;1882781;76;21075;-43
2021/10/23 04:52:57;;;;;;;7.45;3.27;;;22.20;44.40;;;;;;1882799;76;21040;-40
2021/10/23 04:55:25;;;;;;;9.05;4.10;;;22.20;44.40;;;;;;1882859;76;21504;-42
2021/10/23 04:57:53;;;;;;;7.95;3.50;;;22.20;44.20;;;;;;1882815;76;21087;-43
2021/10/23 05:00:21;;;;;;;7.33;3.92;;;22.20;44.10;;;;;;1882732;76;21088;-41
2021/10/23 05:02:49;;;;;;;6.90;3.62;;;22.20;44.10;;;;;;1882773;76;21470;-43
2021/10/23 05:05:16;;;;;;;7.30;3.45;;;22.20;43.70;;;;;;1890638;76;21560;-43
2021/10/23 05:07:44;;;;;;;10.25;3.85;;;22.20;43.70;;;;;;1892114;76;21540;-38
2021/10/23 05:10:18;;;;;;;9.23;3.70;;;22.20;43.50;;;;;;1892108;75;21592;-39
2021/10/23 05:12:42;;;;;;;6.35;3.12;;;22.20;43.50;;;;;;1889791;76;21245;-38
2021/10/23 05:15:10;;;;;;;7.03;3.45;;;22.20;43.90;;;;;;1892023;76;21040;-41
2021/10/23 05:17:37;;;;;;;9.03;4.17;;;22.20;43.90;;;;;;1892066;76;21458;-41
2021/10/23 05:20:05;;;;;;;8.28;3.83;;;22.20;43.90;;;;;;1892041;76;21133;-43
2021/10/23 05:22:33;;;;;;;6.12;3.17;;;22.20;44.00;;;;;;1892174;76;21048;-41
2021/10/23 05:25:00;;;;;;;7.87;3.77;;;22.20;44.00;;;;;;1892162;76;21579;-39
2021/10/23 05:27:28;;;;;;;7.47;3.60;;;22.20;44.00;;;;;;1892054;76;21064;-41
2021/10/23 05:29:55;;;;;;;7.15;3.50;;;22.20;44.00;;;;;;1892016;76;21501;-42
2021/10/23 05:32:23;;;;;;;7.05;3.15;;;22.10;43.90;;;;;;1891974;76;21615;-41
2021/10/23 05:34:51;;;;;;;6.72;3.85;;;22.20;43.90;;;;;;1892118;76;21555;-40
2021/10/23 05:37:19;;;;;;;7.53;3.30;;;22.20;43.90;;;;;;1892048;76;21039;-40
2021/10/23 05:39:46;;;;;;;6.08;3.20;;;22.20;43.90;;;;;;1892069;76;21061;-41
2021/10/23 05:42:14;;;;;;;5.10;2.75;;;22.10;43.80;;;;;;1891920;76;21075;-40
2021/10/23 05:44:41;;;;;;;7.83;3.50;;;22.20;43.90;;;;;;1891985;76;21523;-40
2021/10/23 05:47:08;;;;;;;6.45;3.15;;;22.20;43.80;;;;;;1892048;76;21162;-40
2021/10/23 05:49:36;;;;;;;7.45;3.30;;;22.20;43.90;;;;;;1892079;76;21129;-39
2021/10/23 05:52:04;;;;;;;6.62;2.80;;;22.20;43.80;;;;;;1892105;76;21437;-41
2021/10/23 05:54:37;;;;;;;5.25;2.95;;;22.20;43.70;;;;;;1892149;76;21476;-41
2021/10/23 05:57:00;;;;;;;8.63;3.92;;;22.20;43.80;;;;;;1890482;76;21063;-40
2021/10/23 05:59:28;;;;;;;7.30;3.55;;;22.10;42.80;;;;;;1891996;76;21036;-38
2021/10/23 06:02:00;;;;;;;8.58;3.35;;;22.10;41.80;;;;;;1892126;76;21040;-39
2021/10/23 06:04:25;;;;;;;5.65;2.67;;;22.20;41.80;;;;;;1891041;76;21128;-41
2021/10/23 06:06:52;;;;;;;7.22;3.35;;;22.10;42.00;;;;;;1891962;76;21547;-39
2021/10/23 06:09:20;;;;;;;8.23;2.98;;;22.10;42.30;;;;;;1891830;75;21572;-40
2021/10/23 06:11:48;;;;;;;12.33;3.12;;;22.10;42.50;;;;;;1891975;76;21117;-38
2021/10/23 06:14:15;;;;;;;11.60;3.35;;;22.10;42.90;;;;;;1891920;76;21075;-40
2021/10/23 06:16:43;;;;;;;7.83;2.83;;;22.10;43.10;;;;;;1891818;76;21040;-40
2021/10/23 06:19:11;;;;;;;13.25;3.60;;;22.10;43.20;;;;;;1891942;76;21528;-41
2021/10/23 06:21:39;;;;;;;10.90;3.60;;;22.10;43.40;;;;;;1891824;76;21543;-40
2021/10/23 06:24:06;;;;;;;7.78;3.15;;;22.10;44.10;;;;;;1891852;76;21168;-39
2021/10/23 06:26:34;;;;;;;6.92;3.27;;;22.10;43.50;;;;;;1891805;76;21535;-41
2021/10/23 06:29:02;;;;;;;6.85;3.00;;;22.10;43.40;;;;;;1891928;76;21583;-39
2021/10/23 06:31:29;;;;;;;6.80;2.85;;;22.10;43.40;;;;;;1891810;76;21134;-40
2021/10/23 06:33:56;;;;;;;7.78;3.27;;;22.10;43.30;;;;;;1891940;76;21085;-41
2021/10/23 06:36:24;;;;;;;7.72;3.52;;;22.10;43.30;;;;;;1891793;76;21515;-41
2021/10/23 06:38:51;;;;;;;9.08;3.17;;;22.10;43.30;;;;;;1891801;76;21164;-38
2021/10/23 06:41:19;;;;;;;8.75;3.37;;;22.10;43.40;;;;;;1891792;76;21129;-41
2021/10/23 06:43:47;;;;;;;14.07;3.55;;;22.10;43.30;;;;;;1891759;76;21516;-40
2021/10/23 06:46:14;;;;;;;8.48;3.27;;;22.10;43.50;;;;;;1891807;76;21063;-38
2021/10/23 06:48:42;;;;;;;7.35;3.00;;;22.10;43.60;;;;;;1891985;76;21517;-40
2021/10/23 06:51:10;;;;;;;6.03;3.10;;;22.10;43.50;;;;;;1891884;76;21501;-39
2021/10/23 06:53:38;;;;;;;9.30;4.12;;;22.20;43.40;;;;;;1891800;76;21000;-40
2021/10/23 06:56:05;;;;;;;9.78;3.45;;;22.20;44.00;;;;;;1891903;76;21067;-39
2021/10/23 06:58:32;;;;;;;9.40;3.60;;;22.20;43.90;;;;;;1891899;76;21047;-40
2021/10/23 07:01:00;;;;;;;7.95;3.80;;;22.20;43.60;;;;;;1891931;76;21537;-38
2021/10/23 07:03:28;;;;;;;6.55;3.30;;;22.20;43.20;;;;;;1892018;76;21582;-39
2021/10/23 07:05:55;;;;;;;9.28;3.67;;;22.20;42.70;;;;;;1891988;76;21555;-40
2021/10/23 07:08:23;;;;;;;7.40;3.42;;;22.10;42.50;;;;;;1891850;76;21012;-41
2021/10/23 07:10:50;;;;;;;6.17;3.12;;;22.10;42.70;;;;;;1892105;75;21095;-41
2021/10/23 07:13:17;;;;;;;7.00;3.25;;;22.10;42.80;;;;;;1891992;76;21121;-39
2021/10/23 07:15:45;;;;;;;6.40;3.58;;;22.10;43.10;;;;;;1892051;76;21536;-40
2021/10/23 07:18:12;;;;;;;8.23;3.67;;;22.10;43.10;;;;;;1891927;76;21141;-40
2021/10/23 07:20:39;;;;;;;8.95;3.35;;;22.10;43.10;;;;;;1891910;76;21121;-39
2021/10/23 07:23:07;;;;;;;8.05;3.15;;;22.10;43.20;;;;;;1891896;76;21075;-39
2021/10/23 07:25:34;;;;;;;7.53;3.62;;;22.10;43.30;;;;;;1892004;76;21051;-38
2021/10/23 07:28:02;;;;;;;9.03;3.10;;;22.10;43.30;;;;;;1891868;76;21103;-38
2021/10/23 07:30:29;;;;;;;6.67;3.20;;;22.10;43.20;;;;;;1892021;76;21529;-40
2021/10/23 07:32:57;;;;;;;7.42;3.40;;;22.00;43.20;;;;;;1891976;76;21508;-40
2021/10/23 07:35:24;;;;;;;8.28;3.20;;;22.10;43.20;;;;;;1891922;76;21107;-41
2021/10/23 07:37:52;;;;;;;7.53;3.47;;;22.10;43.20;;;;;;1891949;76;21028;-40
2021/10/23 07:40:19;;;;;;;6.35;3.25;;;22.00;43.10;;;;;;1892054;76;21079;-41
2021/10/23 07:42:46;;;;;;;8.23;3.77;;;22.10;43.10;;;;;;1891950;76;21125;-42
2021/10/23 07:45:14;;;;;;;7.83;3.22;;;22.00;43.10;;;;;;1891895;76;21079;-39
2021/10/23 07:47:45;;;;;;;8.28;3.17;;;22.00;43.50;;;;;;1891943;76;21673;-41
2021/10/23 07:50:12;;;;;;;7.83;2.87;;;22.00;43.00;;;;;;1891885;76;21107;-39
2021/10/23 07:52:40;;;;;;;7.62;3.67;;;22.00;43.00;;;;;;1892029;76;21039;-39
2021/10/23 07:55:08;;;;;;;9.88;3.95;;;22.00;43.00;;;;;;1891890;76;21059;-41
2021/10/23 07:57:37;;;;;;;7.95;4.10;;;22.00;43.20;;;;;;1891939;76;21047;-41
2021/10/23 08:00:10;;;;;;;9.70;3.75;;;22.00;43.20;;;;;;1891916;76;21142;-41
2021/10/23 08:02:49;;;;;;;8.25;3.30;;;22.00;43.20;;;;;;1892001;76;21039;-41
2021/10/23 08:05:17;;;;;;;7.75;3.77;;;22.00;43.20;;;;;;1890001;76;21227;-40
2021/10/23 08:07:45;;;;;;;9.78;3.42;;;22.00;43.40;;;;;;1882709;76;21043;-39
2021/10/23 08:10:13;;;;;;;7.80;3.17;;;22.00;43.30;;;;;;1882696;75;21111;-40
2021/10/23 08:12:43;;;;;;;9.63;3.95;;;22.00;43.40;;;;;;1882621;76;21079;-40
2021/10/23 08:15:11;;;;;;;8.08;3.95;;;22.00;43.40;;;;;;1882613;76;21091;-40
2021/10/23 08:17:39;;;;;;;9.18;3.58;;;22.00;43.70;;;;;;1882750;76;21599;-39
2021/10/23 08:20:07;;;;;;;8.58;3.62;;;22.00;43.40;;;;;;1882750;76;21579;-40
2021/10/23 08:22:36;;;;;;;10.15;4.17;;;22.00;43.50;;;;;;1882636;76;21064;-39
2021/10/23 08:25:06;;;;;;;9.90;3.83;;;22.00;43.50;;;;;;1882637;76;21560;-39
2021/10/23 08:27:34;;;;;;;10.75;4.72;;;22.00;43.50;;;;;;1882749;76;21008;-39
2021/10/23 08:30:03;;;;;;;8.85;4.08;;;22.00;43.60;;;;;;1882607;76;21508;-40
2021/10/23 08:32:31;;;;;;;10.20;4.15;;;22.00;43.50;;;;;;1882624;76;21051;-39
2021/10/23 08:34:59;;;;;;;8.48;4.12;;;22.00;43.50;;;;;;1882644;76;21063;-39
2021/10/23 08:37:27;;;;;;;8.23;4.55;;;22.10;43.60;;;;;;1882604;76;21540;-40
2021/10/23 08:39:54;;;;;;;7.83;3.72;;;22.10;43.70;;;;;;1882647;76;21130;-39
2021/10/23 08:42:22;;;;;;;7.12;4.12;;;22.10;43.70;;;;;;1882618;76;21121;-39
2021/10/23 08:44:49;;;;;;;6.97;3.85;;;22.00;43.70;;;;;;1882730;76;21063;-41
2021/10/23 08:47:17;;;;;;;12.40;4.35;;;22.10;43.70;;;;;;1882623;76;21059;-41
2021/10/23 08:49:45;;;;;;;10.55;4.47;;;22.10;43.80;;;;;;1882727;76;21589;-38
2021/10/23 08:52:13;;;;;;;10.18;4.08;;;22.10;43.70;;;;;;1882571;76;21560;-41
2021/10/23 08:54:41;;;;;;;8.58;4.15;;;22.10;43.70;;;;;;1849084;76;21533;-40
2021/10/23 08:57:08;;;;;;;10.13;4.60;;;22.10;43.80;;;;;;1882607;76;21048;-44
2021/10/23 08:59:36;;;;;;;10.60;4.25;;;22.10;43.90;;;;;;1882616;76;21513;-41
2021/10/23 09:02:04;;;;;;;9.15;4.15;;;22.10;43.90;;;;;;1882600;76;21054;-42
2021/10/23 09:04:32;;;;;;;8.58;4.37;;;22.10;43.90;;;;;;1882720;76;21583;-39
2021/10/23 09:07:15;;;;;;;8.35;3.75;;;22.10;43.90;;;;;;1882582;76;21556;-39
2021/10/23 09:09:51;;;;;;;8.53;4.35;;;22.10;43.90;;;;;;1882582;75;21674;-41
2021/10/23 09:12:29;;;;;;;8.20;4.40;;;22.10;44.10;;;;;;1881846;76;21505;-39
2021/10/23 09:15:17;;;;;;;7.78;4.17;;;22.00;44.00;;;;;;1882634;76;21056;-41
2021/10/23 09:17:53;;;;;;;7.45;3.83;;;22.00;44.10;;;;;;1882617;76;21051;-38
2021/10/23 09:20:21;;;;;;;8.70;4.10;;;22.00;44.20;;;;;;1882621;76;21055;-39
2021/10/23 09:22:50;;;;;;;8.93;4.47;;;22.00;44.30;;;;;;1882633;76;21009;-40
2021/10/23 09:25:35;;;;;;;7.78;4.08;;;22.00;44.30;;;;;;1882762;76;21603;-38
2021/10/23 09:28:12;;;;;;;7.35;3.70;;;22.10;44.30;;;;;;1882659;76;21115;-40
2021/10/23 09:30:47;;;;;;;9.40;3.92;;;22.00;44.20;;;;;;1882622;76;21102;-40
2021/10/23 09:33:22;;;;;;;8.80;3.80;;;22.00;44.20;;;;;;1882560;76;21133;-38
2021/10/23 09:35:51;;;;;;;8.88;3.92;;;22.00;44.30;;;;;;1882718;76;21125;-38
2021/10/23 09:38:20;;;;;;;9.08;3.98;;;22.00;44.30;;;;;;1882643;76;21126;-39
2021/10/23 09:40:49;;;;;;;10.48;4.22;;;22.00;44.20;;;;;;1882774;76;21076;-44
2021/10/23 09:43:21;;;;;;;10.85;4.33;;;22.10;44.30;;;;;;1882582;76;21484;-39
2021/10/23 09:46:00;;;;;;;9.15;3.90;;;22.10;44.20;;;;;;1882674;76;21145;-40
2021/10/23 09:48:48;;;;;;;9.53;4.08;;;22.10;44.20;;;;;;1882618;76;21049;-39
2021/10/23 09:51:18;;;;;;;8.50;4.08;;;22.10;44.20;;;;;;1882721;76;21121;-39
2021/10/23 09:53:47;;;;;;;9.23;3.40;;;22.00;44.20;;;;;;1882531;76;21048;-40
2021/10/23 09:56:18;;;;;;;6.92;3.37;;;22.10;44.30;;;;;;1882737;76;21145;-39
2021/10/23 09:59:00;;;;;;;11.15;3.85;;;22.10;44.20;;;;;;1881950;76;21157;-39
2021/10/23 10:01:32;;;;;;;8.13;3.75;;;22.10;44.10;;;;;;1851352;76;21076;-40
2021/10/23 10:04:06;;;;;;;9.60;3.80;;;22.00;44.10;;;;;;1882588;76;21528;-39
2021/10/23 10:06:35;;;;;;;8.88;4.53;;;22.00;44.20;;;;;;1885933;76;21529;-40
2021/10/23 10:09:03;;;;;;;8.63;3.72;;;22.10;44.20;;;;;;1891964;75;21828;-39
2021/10/23 10:11:31;;;;;;;9.85;3.72;;;22.10;44.20;;;;;;1892079;76;21536;-39
2021/10/23 10:13:59;;;;;;;8.75;4.03;;;22.10;44.20;;;;;;1892019;76;21141;-41
2021/10/23 10:16:29;;;;;;;8.08;4.12;;;22.10;44.30;;;;;;1892017;76;21106;-38
2021/10/23 10:18:56;;;;;;;13.00;3.90;;;22.10;44.30;;;;;;1891752;76;21071;-38
2021/10/23 10:21:23;;;;;;;9.38;3.60;;;22.10;44.30;;;;;;1892087;76;21180;-40
2021/10/23 10:23:53;;;;;;;8.68;3.75;;;22.10;44.30;;;;;;1891990;76;21063;-38
2021/10/23 10:26:23;;;;;;;6.45;3.52;;;22.10;44.20;;;;;;1891809;76;21104;-39
2021/10/23 10:29:11;;;;;;;7.83;3.92;;;22.10;44.20;;;;;;1891833;76;21040;-39
2021/10/23 10:42:51;;;;;;;9.80;3.65;;;22.00;44.60;;;;;;1892432;76;21104;-39
2021/10/23 10:45:34;;;;;;;9.28;3.90;;;22.00;44.60;;;;;;1892131;76;21043;-38
2021/10/23 10:48:21;;;;;;;10.68;4.00;;;22.00;44.60;;;;;;1892107;76;21036;-42
2021/10/23 10:50:55;;;;;;;8.88;3.60;;;22.00;44.80;;;;;;1892137;76;21181;-39
2021/10/23 10:53:26;;;;;;;8.15;3.40;;;22.00;44.70;;;;;;1892101;76;21113;-39
2021/10/23 10:56:02;;;;;;;9.40;3.58;;;22.00;44.60;;;;;;1892064;76;21103;-41
2021/10/23 10:58:52;;;;;;;10.08;3.85;;;22.00;44.60;;;;;;1892265;76;21251;-39
2021/10/23 11:01:24;;;;;;;6.03;3.40;;;22.10;44.80;;;;;;1892166;76;21135;-39
2021/10/23 11:04:11;;;;;;;10.32;3.75;;;22.10;44.80;;;;;;1892172;76;21075;-40
2021/10/23 11:06:45;;;;;;;9.33;3.90;;;22.10;44.80;;;;;;1890129;76;21486;-41
2021/10/23 11:09:19;;;;;;;7.40;3.65;;;22.00;44.80;;;;;;1882963;75;21084;-39
2021/10/23 11:11:50;;;;;;;8.15;4.37;;;22.00;44.80;;;;;;1882892;76;21534;-42
2021/10/23 11:14:24;;;;;;;8.33;4.00;;;22.10;44.80;;;;;;1883135;76;21123;-39
2021/10/23 11:16:57;;;;;;;8.90;4.17;;;22.00;44.80;;;;;;1882893;76;21158;-40
2021/10/23 11:19:31;;;;;;;8.50;4.42;;;22.10;44.80;;;;;;1882931;76;21516;-39
2021/10/23 11:22:00;;;;;;;7.83;4.33;;;22.10;44.70;;;;;;1882913;76;21083;-39
2021/10/23 11:24:31;;;;;;;9.90;4.20;;;22.10;44.70;;;;;;1882977;76;21449;-40
2021/10/23 11:26:59;;;;;;;11.70;4.72;;;22.10;44.60;;;;;;1883002;76;21090;-40
2021/10/23 11:29:28;;;;;;;11.12;5.33;;;22.00;44.60;;;;;;1882758;76;21051;-38
2021/10/23 11:31:56;;;;;;;11.25;5.22;;;22.10;44.60;;;;;;1882831;76;21469;-38
2021/10/23 11:34:26;;;;;;;12.82;5.65;;;22.10;44.60;;;;;;1882862;76;21087;-41
2021/10/23 11:37:01;;;;;;;10.10;5.78;;;22.10;44.60;;;;;;1882865;76;21091;-38
2021/10/23 11:39:37;;;;;;;10.25;5.10;;;22.10;44.50;;;;;;1882826;76;21052;-39
2021/10/23 11:42:25;;;;;;;10.63;5.42;;;22.10;44.60;;;;;;1882862;76;21526;-42
2021/10/23 11:44:55;;;;;;;12.98;6.28;;;22.20;44.60;;;;;;1882862;76;21071;-43
2021/10/23 11:47:31;;;;;;;13.85;5.83;;;22.10;44.70;;;;;;1882383;76;21587;-38
2021/10/23 11:49:59;;;;;;;10.53;5.58;;;22.20;44.70;;;;;;1881197;76;21513;-40
2021/10/23 11:52:28;;;;;;;10.85;5.90;;;22.20;44.70;;;;;;1883065;76;21482;-38
2021/10/23 11:54:56;;;;;;;11.18;6.40;;;22.20;44.70;;;;;;1882803;76;21474;-41
2021/10/23 11:57:46;;;;;;;15.72;8.03;;;22.20;44.70;;;;;;1882649;76;21564;-39
2021/10/23 12:00:18;;;;;;;15.83;7.87;;;22.20;44.70;;;;;;1882872;76;21525;-39
2021/10/23 12:02:53;;;;;;;14.35;7.62;;;22.20;44.80;;;;;;1882826;76;21482;-39
2021/10/23 12:05:32;;;;;;;13.70;7.30;;;22.20;44.80;;;;;;1882562;76;21071;-40
2021/10/23 12:08:17;;;;;;;14.93;6.67;;;22.20;44.80;;;;;;1882391;76;21509;-41
2021/10/23 12:11:08;;;;;;;15.45;6.92;;;22.20;44.80;;;;;;1882807;75;21131;-41
2021/10/23 12:13:47;;;;;;;13.22;6.30;;;22.10;44.80;;;;;;1882983;76;21114;-43
2021/10/23 12:16:15;;;;;;;16.25;7.08;;;22.10;44.60;;;;;;1882892;76;21114;-40
2021/10/23 12:18:44;;;;;;;16.17;6.92;;;22.10;44.60;;;;;;1882849;76;21068;-39
2021/10/23 12:21:21;;;;;;;13.72;6.80;;;22.10;44.50;;;;;;1882844;76;21537;-40
2021/10/23 12:23:51;;;;;;;16.15;7.62;;;22.20;44.50;;;;;;1882831;76;21051;-44
2021/10/23 12:26:26;;;;;;;15.05;7.50;;;22.10;44.40;;;;;;1882758;76;21564;-43
2021/10/23 12:28:59;;;;;;;16.50;7.00;;;22.20;44.40;;;;;;1882044;76;21087;-40
2021/10/23 12:31:28;;;;;;;14.95;7.58;;;22.20;44.40;;;;;;1882809;76;21037;-35
2021/10/23 12:34:04;;;;;;;15.38;7.97;;;22.20;44.40;;;;;;1882777;76;21044;-40
2021/10/23 12:36:33;;;;;;;15.20;7.72;;;22.20;44.30;;;;;;1879026;76;21439;-39
2021/10/23 12:39:23;;;;;;;14.78;8.13;;;22.20;44.30;;;;;;1882117;76;21497;-39
2021/10/23 12:41:50;;;;;;;14.33;7.67;;;22.20;44.20;;;;;;1882806;76;21001;-39
2021/10/23 12:44:19;;;;;;;13.88;6.62;;;22.20;44.50;;;;;;1882805;76;21536;-41
2021/10/23 12:46:47;;;;;;;14.58;7.15;;;22.20;44.20;;;;;;1882831;76;21083;-40
2021/10/23 12:49:15;;;;;;;14.03;7.87;;;22.20;44.80;;;;;;1882886;76;21549;-39
2021/10/23 12:51:43;;;;;;;15.68;7.72;;;22.20;44.20;;;;;;1882803;76;21045;-40
2021/10/23 12:54:14;;;;;;;15.45;7.95;;;22.30;44.30;;;;;;1882785;76;21039;-39
2021/10/23 12:56:39;;;;;;;15.38;7.90;;;22.20;44.20;;;;;;1882330;76;21075;-40
2021/10/23 12:59:08;;;;;;;17.27;8.40;;;22.20;44.20;;;;;;1882857;76;21111;-41
2021/10/23 13:01:36;;;;;;;14.75;7.17;;;22.30;44.20;;;;;;1882891;76;21075;-39
2021/10/23 13:04:06;;;;;;;17.67;8.23;;;22.30;44.20;;;;;;1882934;76;21096;-40